createdAt,value
2023-04-25T00:00:22.466Z,5.50
2023-04-25T00:02:49.606Z,4.73
2023-04-25T00:05:17.152Z,4.23
2023-04-25T00:07:44.152Z,4.93
2023-04-25T00:10:12.729Z,4.60
2023-04-25T00:12:40.166Z,4.60
2023-04-25T00:15:07.486Z,4.63
2023-04-25T00:17:35.928Z,4.00
2023-04-25T00:20:06.043Z,5.37
2023-04-25T00:22:34.604Z,4.10
2023-04-25T00:25:01.420Z,5.10
2023-04-25T00:27:28.108Z,5.20
2023-04-25T00:29:54.883Z,5.13
2023-04-25T00:32:21.716Z,5.33
2023-04-25T00:34:48.464Z,4.80
2023-04-25T00:37:15.486Z,6.20
2023-04-25T00:39:42.252Z,5.07
2023-04-25T00:42:09.494Z,4.73
2023-04-25T00:44:37.662Z,5.43
2023-04-25T00:47:04.667Z,5.10
2023-04-25T00:49:31.640Z,5.90
2023-04-25T00:51:58.390Z,5.40
2023-04-25T00:54:26.201Z,5.00
2023-04-25T00:56:53.492Z,5.20
2023-04-25T00:59:21.463Z,5.70
2023-04-25T01:01:48.384Z,4.60
2023-04-25T01:04:15.774Z,6.53
2023-04-25T01:06:42.903Z,4.70
2023-04-25T01:09:10.501Z,6.10
2023-04-25T01:11:37.292Z,6.33
2023-04-25T01:14:04.099Z,6.57
2023-04-25T01:16:31.522Z,6.23
2023-04-25T01:18:58.595Z,6.07
2023-04-25T01:21:28.150Z,7.00
2023-04-25T01:23:55.777Z,7.10
2023-04-25T01:26:23.432Z,7.77
2023-04-25T01:28:50.584Z,7.40
2023-04-25T01:31:19.093Z,6.37
2023-04-25T01:33:46.294Z,6.97
2023-04-25T01:36:14.099Z,5.97
2023-04-25T01:38:41.338Z,5.67
2023-04-25T01:41:08.330Z,7.03
2023-04-25T01:43:35.448Z,5.70
2023-04-25T01:46:02.594Z,7.20
2023-04-25T01:48:29.349Z,6.53
2023-04-25T01:50:56.063Z,6.60
2023-04-25T01:53:23.633Z,6.37
2023-04-25T01:55:50.407Z,6.37
2023-04-25T01:58:17.220Z,6.70
2023-04-25T02:00:44.000Z,6.90
2023-04-25T02:03:10.896Z,6.00
2023-04-25T02:05:38.897Z,6.57
2023-04-25T02:08:07.434Z,8.07
2023-04-25T02:10:35.267Z,6.93
2023-04-25T02:13:02.111Z,7.57
2023-04-25T02:15:28.876Z,7.47
2023-04-25T02:17:55.747Z,8.50
2023-04-25T02:20:23.534Z,8.17
2023-04-25T02:22:50.471Z,9.40
2023-04-25T02:25:17.834Z,10.77
2023-04-25T02:27:44.633Z,9.43
2023-04-25T02:30:11.624Z,9.50
2023-04-25T02:32:38.947Z,9.40
2023-04-25T02:35:06.736Z,8.80
2023-04-25T02:37:37.664Z,8.33
2023-04-25T02:40:05.260Z,8.83
2023-04-25T02:42:32.365Z,7.30
2023-04-25T02:44:59.223Z,7.63
2023-04-25T02:47:26.032Z,7.77
2023-04-25T02:49:52.824Z,8.70
2023-04-25T02:52:19.672Z,6.97
2023-04-25T02:54:46.434Z,7.53
2023-04-25T02:57:13.282Z,6.77
2023-04-25T02:59:40.048Z,7.50
2023-04-25T03:02:06.758Z,6.77
2023-04-25T03:04:34.512Z,5.77
2023-04-25T03:07:01.920Z,6.57
2023-04-25T03:09:28.649Z,6.73
2023-04-25T03:11:55.539Z,7.07
2023-04-25T03:14:22.219Z,7.40
2023-04-25T03:16:48.901Z,6.67
2023-04-25T03:19:17.998Z,7.77
2023-04-25T03:21:45.323Z,6.13
2023-04-25T03:24:12.886Z,7.00
2023-04-25T03:26:39.592Z,6.33
2023-04-25T03:29:06.351Z,6.27
2023-04-25T03:31:33.183Z,6.10
2023-04-25T03:33:59.945Z,5.40
2023-04-25T03:36:26.697Z,5.17
2023-04-25T03:38:53.470Z,5.40
2023-04-25T03:41:20.302Z,4.80
2023-04-25T03:43:47.027Z,6.33
2023-04-25T03:46:13.851Z,6.00
2023-04-25T03:48:40.556Z,5.00
2023-04-25T03:51:07.204Z,5.90
2023-04-25T03:53:33.926Z,6.40
2023-04-25T03:56:00.622Z,4.70
2023-04-25T03:58:27.403Z,5.40
2023-04-25T04:00:54.160Z,5.60
2023-04-25T04:03:21.561Z,5.90
2023-04-25T04:05:48.875Z,5.20
2023-04-25T04:08:16.060Z,5.20
2023-04-25T04:10:42.739Z,5.83
2023-04-25T04:13:09.507Z,5.20
2023-04-25T04:15:36.571Z,5.30
2023-04-25T04:18:03.573Z,6.57
2023-04-25T04:20:31.542Z,6.07
2023-04-25T04:22:58.295Z,5.70
2023-04-25T04:25:25.587Z,6.13
2023-04-25T04:27:55.601Z,3.90
2023-04-25T04:30:25.226Z,3.00
2023-04-25T04:32:52.947Z,2.73
2023-04-25T04:35:19.813Z,2.50
2023-04-25T04:37:46.846Z,2.63
2023-04-25T04:40:16.271Z,2.80
2023-04-25T04:42:44.192Z,2.63
2023-04-25T04:45:11.339Z,2.57
2023-04-25T04:47:38.445Z,2.50
2023-04-25T04:50:11.327Z,2.93
2023-04-25T04:52:38.929Z,2.67
2023-04-25T04:55:06.867Z,3.50
2023-04-25T04:57:33.924Z,2.30
2023-04-25T05:00:00.677Z,2.77
2023-04-25T05:02:27.860Z,2.93
2023-04-25T05:04:54.830Z,3.00
2023-04-25T05:07:22.020Z,3.60
2023-04-25T05:09:48.787Z,2.80
2023-04-25T05:12:15.583Z,2.53
2023-04-25T05:14:42.336Z,2.83
2023-04-25T05:17:09.571Z,2.67
2023-04-25T05:19:36.397Z,3.13
2023-04-25T05:22:03.929Z,4.30
2023-04-25T05:24:31.567Z,3.00
2023-04-25T05:26:58.629Z,3.10
2023-04-25T05:29:25.516Z,3.50
2023-04-25T05:31:52.447Z,3.10
2023-04-25T05:34:19.380Z,3.17
2023-04-25T05:36:49.306Z,2.97
2023-04-25T05:39:18.324Z,3.67
2023-04-25T05:41:45.161Z,3.00
2023-04-25T05:44:11.943Z,3.40
2023-04-25T05:46:38.938Z,3.70
2023-04-25T05:49:05.911Z,4.50
2023-04-25T05:51:32.720Z,4.20
2023-04-25T05:53:59.444Z,3.50
2023-04-25T05:56:26.575Z,4.20
2023-04-25T05:58:53.337Z,4.37
2023-04-25T06:01:20.101Z,4.13
2023-04-25T06:03:47.334Z,4.80
2023-04-25T06:06:14.327Z,5.07
2023-04-25T06:08:41.750Z,5.17
2023-04-25T06:11:08.427Z,5.20
2023-04-25T06:13:35.544Z,6.60
2023-04-25T06:16:02.259Z,5.70
2023-04-25T06:18:29.233Z,5.80
2023-04-25T06:20:56.018Z,5.30
2023-04-25T06:23:22.681Z,4.23
2023-04-25T06:25:49.363Z,6.23
2023-04-25T06:28:16.080Z,5.37
2023-04-25T06:30:42.860Z,6.30
2023-04-25T06:33:09.792Z,6.60
2023-04-25T06:35:36.804Z,6.20
2023-04-25T06:38:03.597Z,6.33
2023-04-25T06:40:30.577Z,7.00
2023-04-25T06:42:57.220Z,7.37
2023-04-25T06:45:23.888Z,7.10
2023-04-25T06:47:50.617Z,7.07
2023-04-25T06:50:17.416Z,7.73
2023-04-25T06:52:44.240Z,8.17
2023-04-25T06:55:11.106Z,8.57
2023-04-25T06:57:37.832Z,7.40
2023-04-25T07:00:09.373Z,6.97
2023-04-25T07:02:36.754Z,6.50
2023-04-25T07:05:05.097Z,6.90
2023-04-25T07:07:32.362Z,7.40
2023-04-25T07:09:59.097Z,6.07
2023-04-25T07:12:25.940Z,7.13
2023-04-25T07:14:52.680Z,6.50
2023-04-25T07:17:19.501Z,4.97
2023-04-25T07:19:46.185Z,5.40
2023-04-25T07:22:12.984Z,5.67
2023-04-25T07:24:39.999Z,4.40
2023-04-25T07:27:07.206Z,4.57
2023-04-25T07:29:36.737Z,4.10
2023-04-25T07:32:03.639Z,3.40
2023-04-25T07:34:31.384Z,4.70
2023-04-25T07:36:58.125Z,5.13
2023-04-25T07:39:24.895Z,5.13
2023-04-25T07:41:53.787Z,5.60
2023-04-25T07:44:21.779Z,5.90
2023-04-25T07:46:48.597Z,5.50
2023-04-25T07:49:15.756Z,5.27
2023-04-25T07:51:44.317Z,4.93
2023-04-25T07:54:13.332Z,4.20
2023-04-25T07:56:51.548Z,3.73
2023-04-25T07:59:20.395Z,3.93
2023-04-25T08:01:47.270Z,4.10
2023-04-25T08:04:14.248Z,4.93
2023-04-25T08:06:41.582Z,3.70
2023-04-25T08:09:10.233Z,4.70
2023-04-25T08:11:38.483Z,4.77
2023-04-25T08:14:06.019Z,4.17
2023-04-25T08:16:32.801Z,4.53
2023-04-25T08:19:01.028Z,2.90
2023-04-25T08:21:30.892Z,3.70
2023-04-25T08:23:59.552Z,3.53
2023-04-25T08:26:26.687Z,2.40
2023-04-25T08:28:53.727Z,2.57
2023-04-25T08:31:20.698Z,3.00
2023-04-25T08:33:47.823Z,2.37
2023-04-25T08:36:17.278Z,3.27
2023-04-25T08:38:48.646Z,2.90
2023-04-25T08:41:17.302Z,2.30
2023-04-25T08:43:46.939Z,2.23
2023-04-25T08:46:16.706Z,2.20
2023-04-25T08:48:45.460Z,2.40
2023-04-25T08:51:17.193Z,1.90
2023-04-25T08:53:46.291Z,1.93
2023-04-25T08:56:17.755Z,1.97
2023-04-25T08:58:46.902Z,2.67
2023-04-25T09:01:13.712Z,2.63
2023-04-25T09:03:40.662Z,2.80
2023-04-25T09:06:08.137Z,2.57
2023-04-25T09:08:34.885Z,1.93
2023-04-25T09:11:01.532Z,2.60
2023-04-25T09:13:29.507Z,2.57
2023-04-25T09:15:58.305Z,2.07
2023-04-25T09:18:33.580Z,1.63
2023-04-25T09:21:14.644Z,2.23
2023-04-25T09:23:45.609Z,1.90
2023-04-25T09:26:16.244Z,1.47
2023-04-25T09:28:44.107Z,1.67
2023-04-25T09:31:14.778Z,1.90
2023-04-25T09:33:42.072Z,1.53
2023-04-25T09:36:14.453Z,2.30
2023-04-25T09:38:48.084Z,2.00
2023-04-25T09:41:22.977Z,2.00
2023-04-25T09:43:51.967Z,1.50
2023-04-25T09:46:22.050Z,1.50
2023-04-25T09:48:52.263Z,1.57
2023-04-25T09:51:19.033Z,2.23
2023-04-25T09:53:50.951Z,1.97
2023-04-25T09:56:19.689Z,2.17
2023-04-25T09:58:49.021Z,2.67
2023-04-25T10:01:18.001Z,2.40
2023-04-25T10:03:48.285Z,2.73
2023-04-25T10:06:20.695Z,1.60
2023-04-25T10:08:52.285Z,2.03
2023-04-25T10:11:19.386Z,1.70
2023-04-25T10:13:47.019Z,1.20
2023-04-25T10:16:14.443Z,1.13
2023-04-25T10:18:41.733Z,1.00
2023-04-25T10:21:08.750Z,1.43
2023-04-25T10:23:38.276Z,1.60
2023-04-25T10:26:05.309Z,1.20
2023-04-25T10:28:58.892Z,1.40
2023-04-25T10:31:26.640Z,1.27
2023-04-25T10:33:54.983Z,1.37
2023-04-25T10:36:23.705Z,1.40
2023-04-25T10:38:51.884Z,1.47
2023-04-25T10:41:20.650Z,1.50
2023-04-25T10:43:49.255Z,1.03
2023-04-25T10:46:33.004Z,1.80
2023-04-25T10:49:01.695Z,1.63
2023-04-25T10:51:34.575Z,1.87
2023-04-25T10:54:10.570Z,1.30
2023-04-25T10:56:38.931Z,1.23
2023-04-25T10:59:13.991Z,1.50
2023-04-25T11:01:41.892Z,1.70
2023-04-25T11:04:31.358Z,1.60
2023-04-25T11:07:06.979Z,1.37
2023-04-25T11:09:36.446Z,2.47
2023-04-25T11:12:03.635Z,1.20
2023-04-25T11:14:30.620Z,1.70
2023-04-25T11:17:00.658Z,2.53
2023-04-25T11:19:29.227Z,1.60
2023-04-25T11:22:01.006Z,2.37
2023-04-25T11:24:31.528Z,1.97
2023-04-25T11:27:03.490Z,2.03
2023-04-25T11:29:31.701Z,1.67
2023-04-25T11:31:59.396Z,2.40
2023-04-25T11:34:26.977Z,1.93
2023-04-25T11:36:54.460Z,1.33
2023-04-25T11:39:21.641Z,1.73
2023-04-25T11:41:48.586Z,1.60
2023-04-25T11:44:20.074Z,1.73
2023-04-25T11:46:47.824Z,1.63
2023-04-25T11:49:15.928Z,1.80
2023-04-25T11:51:47.481Z,1.33
2023-04-25T11:54:14.829Z,1.93
2023-04-25T11:56:47.644Z,3.67
2023-04-25T11:59:15.557Z,1.60
2023-04-25T12:01:50.647Z,1.23
2023-04-25T12:04:25.923Z,1.47
2023-04-25T12:06:55.140Z,1.63
2023-04-25T12:09:29.954Z,1.10
2023-04-25T12:11:59.188Z,2.00
2023-04-25T12:14:28.208Z,1.33
2023-04-25T12:16:58.726Z,0.90
2023-04-25T12:19:26.913Z,0.90
2023-04-25T12:21:58.736Z,1.63
2023-04-25T12:24:29.494Z,1.70
2023-04-25T12:27:11.216Z,1.17
2023-04-25T12:29:49.480Z,0.90
2023-04-25T12:32:17.797Z,1.20
2023-04-25T12:34:44.855Z,1.30
2023-04-25T12:37:14.541Z,1.40
2023-04-25T12:39:41.420Z,1.73
2023-04-25T12:42:14.241Z,1.03
2023-04-25T12:44:42.157Z,1.07
2023-04-25T12:47:09.414Z,1.30
2023-04-25T12:49:36.446Z,1.33
2023-04-25T12:52:03.298Z,1.17
2023-04-25T12:54:30.058Z,1.23
2023-04-25T12:56:57.370Z,0.80
2023-04-25T12:59:24.393Z,0.83
2023-04-25T13:01:51.186Z,1.17
2023-04-25T13:04:18.801Z,1.67
2023-04-25T13:06:45.848Z,1.07
2023-04-25T13:09:13.496Z,0.90
2023-04-25T13:11:41.633Z,1.33
2023-04-25T13:14:08.826Z,0.97
2023-04-25T13:16:35.829Z,1.17
2023-04-25T13:19:02.663Z,0.90
2023-04-25T13:21:33.204Z,0.90
2023-04-25T13:24:00.235Z,0.77
2023-04-25T13:26:27.160Z,1.03
2023-04-25T13:28:53.970Z,1.00
2023-04-25T13:31:20.782Z,1.23
2023-04-25T13:33:47.542Z,1.13
2023-04-25T13:36:14.528Z,1.23
2023-04-25T13:38:45.235Z,1.10
2023-04-25T13:41:16.698Z,0.70
2023-04-25T13:43:43.402Z,0.77
2023-04-25T13:46:24.888Z,1.00
2023-04-25T13:49:06.211Z,1.30
2023-04-25T13:51:38.620Z,1.40
2023-04-25T13:54:05.473Z,1.50
2023-04-25T13:56:32.147Z,1.47
2023-04-25T13:58:59.089Z,1.00
2023-04-25T14:01:26.018Z,1.57
2023-04-25T14:03:53.085Z,1.23
2023-04-25T14:06:23.822Z,1.50
2023-04-25T14:08:54.013Z,1.30
2023-04-25T14:11:21.130Z,1.60
2023-04-25T14:13:49.439Z,1.23
2023-04-25T14:16:17.698Z,1.23
2023-04-25T14:18:44.523Z,1.37
2023-04-25T14:21:11.746Z,1.27
2023-04-25T14:23:38.620Z,2.07
2023-04-25T14:26:06.132Z,1.00
2023-04-25T14:28:32.984Z,0.93
2023-04-25T14:30:59.830Z,1.03
2023-04-25T14:33:26.654Z,0.87
2023-04-25T14:35:53.973Z,0.90
2023-04-25T14:38:24.108Z,0.73
2023-04-25T14:40:51.102Z,0.83
2023-04-25T14:43:18.063Z,0.70
2023-04-25T14:45:44.913Z,1.53
2023-04-25T14:48:11.767Z,1.03
2023-04-25T14:50:38.450Z,1.00
2023-04-25T14:53:05.332Z,1.10
2023-04-25T14:55:32.193Z,0.83
2023-04-25T14:58:00.128Z,1.23
2023-04-25T15:00:27.648Z,0.90
2023-04-25T15:02:54.583Z,1.10
2023-04-25T15:05:21.553Z,1.27
2023-04-25T15:07:48.890Z,0.87
2023-04-25T15:10:17.012Z,0.97
2023-04-25T15:12:46.325Z,0.90
2023-04-25T15:15:22.606Z,0.80
2023-04-25T15:17:53.572Z,0.97
2023-04-25T15:20:21.124Z,1.00
2023-04-25T15:22:49.752Z,0.93
2023-04-25T15:25:20.530Z,1.00
2023-04-25T15:27:49.348Z,0.90
2023-04-25T15:30:17.557Z,1.00
2023-04-25T15:32:45.596Z,1.03
2023-04-25T15:35:12.702Z,1.30
2023-04-25T15:37:39.707Z,1.43
2023-04-25T15:40:17.548Z,1.10
2023-04-25T15:42:51.377Z,1.30
2023-04-25T15:45:20.030Z,1.23
2023-04-25T15:47:47.139Z,1.03
2023-04-25T15:50:17.820Z,0.90
2023-04-25T15:52:44.626Z,1.30
2023-04-25T15:55:12.976Z,1.20
2023-04-25T15:57:41.966Z,1.17
2023-04-25T16:00:13.322Z,1.43
2023-04-25T16:02:41.367Z,1.30
2023-04-25T16:05:09.406Z,1.13
2023-04-25T16:07:36.784Z,0.80
2023-04-25T16:10:04.053Z,1.17
2023-04-25T16:12:31.339Z,1.10
2023-04-25T16:14:58.220Z,1.20
2023-04-25T16:17:26.019Z,1.00
2023-04-25T16:19:52.718Z,1.13
2023-04-25T16:22:19.514Z,1.17
2023-04-25T16:24:46.326Z,0.70
2023-04-25T16:27:13.189Z,1.00
2023-04-25T16:29:39.901Z,0.90
2023-04-25T16:32:06.917Z,1.30
2023-04-25T16:34:33.765Z,1.37
2023-04-25T16:37:01.349Z,1.20
2023-04-25T16:39:28.216Z,1.10
2023-04-25T16:41:55.302Z,1.20
2023-04-25T16:44:22.111Z,1.13
2023-04-25T16:46:49.076Z,1.13
2023-04-25T16:49:15.866Z,0.70
2023-04-25T16:51:42.752Z,1.77
2023-04-25T16:54:09.525Z,1.20
2023-04-25T16:56:36.225Z,0.90
2023-04-25T16:59:03.007Z,1.00
2023-04-25T17:01:30.197Z,0.90
2023-04-25T17:03:57.247Z,1.53
2023-04-25T17:06:24.759Z,0.90
2023-04-25T17:08:51.908Z,1.00
2023-04-25T17:11:20.150Z,2.00
2023-04-25T17:13:47.019Z,1.03
2023-04-25T17:16:16.653Z,1.23
2023-04-25T17:18:44.166Z,0.97
2023-04-25T17:21:11.061Z,0.87
2023-04-25T17:23:38.054Z,1.43
2023-04-25T17:26:04.934Z,1.40
2023-04-25T17:28:31.604Z,0.90
2023-04-25T17:30:58.591Z,1.03
2023-04-25T17:33:27.080Z,1.00
2023-04-25T17:35:54.421Z,2.30
2023-04-25T17:38:21.700Z,1.37
2023-04-25T17:40:48.443Z,0.93
2023-04-25T17:43:15.275Z,2.53
2023-04-25T17:45:41.949Z,0.87
2023-04-25T17:48:08.694Z,1.20
2023-04-25T17:50:35.621Z,0.83
2023-04-25T17:53:06.016Z,1.13
2023-04-25T17:55:32.797Z,1.00
2023-04-25T17:57:59.534Z,1.30
2023-04-25T18:00:26.259Z,1.13
2023-04-25T18:02:53.147Z,1.37
2023-04-25T18:05:20.034Z,1.03
2023-04-25T18:07:46.819Z,1.20
2023-04-25T18:10:15.185Z,1.13
2023-04-25T18:12:43.393Z,1.00
2023-04-25T18:15:10.460Z,1.63
2023-04-25T18:17:40.260Z,0.87
2023-04-25T18:20:14.878Z,0.83
2023-04-25T18:22:43.162Z,1.50
2023-04-25T18:25:11.130Z,1.10
2023-04-25T18:27:38.930Z,1.13
2023-04-25T18:30:08.886Z,0.90
2023-04-25T18:32:35.867Z,0.80
2023-04-25T18:35:03.332Z,1.17
2023-04-25T18:37:30.169Z,1.20
2023-04-25T18:39:56.933Z,1.20
2023-04-25T18:42:23.618Z,0.90
2023-04-25T18:44:51.058Z,1.90
2023-04-25T18:47:17.950Z,1.03
2023-04-25T18:49:45.620Z,0.90
2023-04-25T18:52:15.015Z,1.33
2023-04-25T18:54:42.544Z,1.30
2023-04-25T18:57:09.480Z,1.50
2023-04-25T18:59:36.403Z,1.97
2023-04-25T19:02:05.217Z,1.20
2023-04-25T19:04:32.631Z,1.40
2023-04-25T19:06:59.735Z,1.70
2023-04-25T19:09:26.561Z,1.37
2023-04-25T19:11:53.393Z,1.77
2023-04-25T19:14:20.355Z,1.67
2023-04-25T19:16:50.194Z,1.00
2023-04-25T19:19:16.960Z,1.30
2023-04-25T19:21:43.832Z,0.90
2023-04-25T19:24:11.420Z,1.93
2023-04-25T19:26:38.497Z,1.30
2023-04-25T19:29:14.372Z,1.23
2023-04-25T19:31:43.056Z,1.10
2023-04-25T19:34:10.339Z,1.27
2023-04-25T19:36:38.764Z,1.10
2023-04-25T19:39:07.390Z,1.07
2023-04-25T19:41:38.392Z,1.33
2023-04-25T19:44:07.756Z,1.10
2023-04-25T19:46:35.934Z,1.27
2023-04-25T19:49:06.040Z,1.00
2023-04-25T19:51:34.090Z,0.70
2023-04-25T19:54:01.000Z,1.43
2023-04-25T19:56:27.914Z,1.70
2023-04-25T19:58:54.943Z,0.90
2023-04-25T20:01:22.428Z,1.30
2023-04-25T20:03:51.797Z,2.17
2023-04-25T20:06:19.188Z,1.50
2023-04-25T20:08:47.176Z,1.37
2023-04-25T20:11:14.041Z,1.50
2023-04-25T20:13:41.071Z,1.50
2023-04-25T20:16:07.957Z,1.43
2023-04-25T20:18:34.906Z,1.20
2023-04-25T20:21:02.318Z,1.33
2023-04-25T20:23:29.070Z,1.80
2023-04-25T20:25:55.881Z,1.20
2023-04-25T20:28:23.228Z,1.63
2023-04-25T20:30:50.633Z,1.40
2023-04-25T20:33:17.445Z,1.67
2023-04-25T20:35:44.317Z,1.57
2023-04-25T20:38:12.059Z,1.40
2023-04-25T20:40:38.858Z,1.20
2023-04-25T20:43:05.700Z,1.70
2023-04-25T20:45:34.297Z,1.43
2023-04-25T20:48:02.539Z,1.20
2023-04-25T20:50:29.527Z,1.57
2023-04-25T20:52:56.273Z,1.40
2023-04-25T20:55:23.184Z,1.97
2023-04-25T20:57:50.405Z,1.40
2023-04-25T21:00:27.144Z,1.70
2023-04-25T21:02:54.653Z,1.30
2023-04-25T21:05:24.675Z,1.97
2023-04-25T21:07:55.014Z,1.87
2023-04-25T21:10:22.099Z,1.27
2023-04-25T21:12:49.955Z,1.40
2023-04-25T21:15:20.130Z,1.30
2023-04-25T21:17:47.718Z,1.43
2023-04-25T21:20:17.712Z,1.53
2023-04-25T21:22:53.890Z,1.77
2023-04-25T21:25:29.161Z,1.70
2023-04-25T21:27:57.058Z,2.17
2023-04-25T21:30:25.849Z,1.47
2023-04-25T21:32:53.527Z,1.30
2023-04-25T21:35:21.790Z,1.40
2023-04-25T21:37:48.668Z,2.00
2023-04-25T21:40:15.727Z,1.70
2023-04-25T21:42:51.446Z,1.67
2023-04-25T21:45:19.759Z,2.03
2023-04-25T21:47:47.794Z,1.80
2023-04-25T21:50:15.100Z,1.80
2023-04-25T21:52:41.978Z,1.30
2023-04-25T21:55:10.580Z,2.00
2023-04-25T21:57:37.413Z,1.33
2023-04-25T22:00:13.836Z,1.90
2023-04-25T22:02:40.973Z,1.83
2023-04-25T22:05:07.829Z,1.93
2023-04-25T22:07:34.665Z,1.57
2023-04-25T22:10:01.382Z,1.33
2023-04-25T22:12:28.562Z,2.00
2023-04-25T22:14:55.324Z,4.63
2023-04-25T22:17:25.758Z,1.57
2023-04-25T22:19:52.601Z,1.60
2023-04-25T22:22:19.307Z,1.80
2023-04-25T22:24:48.105Z,2.10
2023-04-25T22:27:14.826Z,1.50
2023-04-25T22:29:41.735Z,1.67
2023-04-25T22:32:08.833Z,1.37
2023-04-25T22:34:35.930Z,1.20
2023-04-25T22:37:03.326Z,1.40
2023-04-25T22:39:30.471Z,1.97
2023-04-25T22:41:57.894Z,1.70
2023-04-25T22:44:24.582Z,1.50
2023-04-25T22:46:51.265Z,1.80
2023-04-25T22:49:18.102Z,1.70
2023-04-25T22:51:44.775Z,2.60
2023-04-25T22:54:11.465Z,1.33
2023-04-25T22:56:38.124Z,1.87
2023-04-25T22:59:04.890Z,1.50
2023-04-25T23:01:31.853Z,2.27
2023-04-25T23:03:58.819Z,1.50
2023-04-25T23:06:26.465Z,1.60
2023-04-25T23:08:53.641Z,2.30
2023-04-25T23:11:20.596Z,1.50
2023-04-25T23:13:47.438Z,1.87
2023-04-25T23:16:14.145Z,1.73
2023-04-25T23:18:41.014Z,2.07
2023-04-25T23:21:12.065Z,1.27
2023-04-25T23:23:39.851Z,1.63
2023-04-25T23:26:10.921Z,1.70
2023-04-25T23:28:41.502Z,1.50
2023-04-25T23:31:10.255Z,1.60
2023-04-25T23:33:37.200Z,1.77
2023-04-25T23:36:04.320Z,1.40
2023-04-25T23:38:31.776Z,1.70
2023-04-25T23:40:58.504Z,1.77
2023-04-25T23:43:25.262Z,1.50
2023-04-25T23:45:52.068Z,1.50
2023-04-25T23:48:18.843Z,2.30
2023-04-25T23:50:45.649Z,2.10
2023-04-25T23:53:12.396Z,2.30
2023-04-25T23:55:39.195Z,1.73
2023-04-25T23:58:06.473Z,1.50
